createdAt,value
2022-09-09T00:01:10.863Z,13.10
2022-09-09T00:03:47.327Z,13.10
2022-09-09T00:06:26.500Z,13.20
2022-09-09T00:09:03.527Z,13.20
2022-09-09T00:11:42.250Z,13.20
2022-09-09T00:14:15.833Z,13.10
2022-09-09T00:16:48.483Z,13.00
2022-09-09T00:19:24.297Z,13.00
2022-09-09T00:22:04.013Z,12.90
2022-09-09T00:24:39.823Z,12.90
2022-09-09T00:27:16.630Z,12.80
2022-09-09T00:29:48.488Z,12.90
2022-09-09T00:32:19.721Z,12.90
2022-09-09T00:34:51.386Z,12.90
2022-09-09T00:37:23.189Z,13.00
2022-09-09T00:39:55.735Z,13.00
2022-09-09T00:42:28.479Z,13.10
2022-09-09T00:45:03.866Z,13.10
2022-09-09T00:47:43.530Z,13.10
2022-09-09T00:50:33.903Z,13.00
2022-09-09T00:53:25.083Z,13.00
2022-09-09T00:55:59.672Z,12.90
2022-09-09T00:58:28.721Z,13.10
2022-09-09T01:01:04.666Z,13.40
2022-09-09T01:03:37.532Z,13.40
2022-09-09T01:06:16.721Z,13.40
2022-09-09T01:09:20.086Z,13.40
2022-09-09T01:12:03.276Z,13.40
2022-09-09T01:14:43.952Z,13.40
2022-09-09T01:17:18.212Z,13.30
2022-09-09T01:20:03.823Z,13.40
2022-09-09T01:22:42.280Z,13.60
2022-09-09T01:25:33.048Z,14.00
2022-09-09T01:28:13.875Z,13.80
2022-09-09T01:30:43.800Z,14.00
2022-09-09T01:33:17.712Z,13.70
2022-09-09T01:35:51.799Z,13.60
2022-09-09T01:38:21.075Z,13.60
2022-09-09T01:40:53.095Z,13.60
2022-09-09T01:43:27.312Z,13.70
2022-09-09T01:45:57.392Z,13.70
2022-09-09T01:48:27.013Z,13.60
2022-09-09T01:51:04.045Z,13.70
2022-09-09T01:53:32.448Z,13.80
2022-09-09T01:56:10.029Z,13.80
2022-09-09T01:58:55.194Z,13.80
2022-09-09T02:01:37.056Z,13.90
2022-09-09T02:04:14.065Z,13.80
2022-09-09T02:06:42.774Z,13.80
2022-09-09T02:09:24.949Z,13.80
2022-09-09T02:12:00.104Z,13.80
2022-09-09T02:14:43.800Z,13.80
2022-09-09T02:17:13.893Z,13.90
2022-09-09T02:20:06.101Z,13.70
2022-09-09T02:22:46.055Z,13.90
2022-09-09T02:25:20.206Z,13.90
2022-09-09T02:27:51.686Z,13.80
2022-09-09T02:30:22.468Z,13.60
2022-09-09T02:33:00.642Z,13.60
2022-09-09T02:35:43.102Z,13.60
2022-09-09T02:38:14.858Z,13.60
2022-09-09T02:40:48.323Z,13.60
2022-09-09T02:43:18.060Z,13.60
2022-09-09T02:45:57.715Z,13.60
2022-09-09T02:48:32.451Z,13.70
2022-09-09T02:51:11.012Z,13.70
2022-09-09T02:53:48.893Z,13.90
2022-09-09T02:56:19.084Z,13.90
2022-09-09T02:58:50.373Z,13.90
2022-09-09T03:01:20.156Z,13.90
2022-09-09T03:03:48.995Z,14.00
2022-09-09T03:06:18.496Z,13.90
2022-09-09T03:08:53.413Z,13.90
2022-09-09T03:11:25.780Z,14.00
2022-09-09T03:13:54.219Z,14.00
2022-09-09T03:16:24.431Z,13.90
2022-09-09T03:18:54.596Z,13.80
2022-09-09T03:21:22.752Z,13.80
2022-09-09T03:23:51.628Z,13.90
2022-09-09T03:26:20.380Z,13.90
2022-09-09T03:28:50.931Z,14.00
2022-09-09T03:31:20.609Z,13.90
2022-09-09T03:33:50.254Z,13.80
2022-09-09T03:36:20.363Z,13.70
2022-09-09T03:38:48.408Z,13.60
2022-09-09T03:41:16.906Z,13.60
2022-09-09T03:43:45.571Z,13.50
2022-09-09T03:46:13.710Z,13.50
2022-09-09T03:48:42.090Z,13.40
2022-09-09T03:51:11.521Z,13.40
2022-09-09T03:53:39.733Z,13.20
2022-09-09T03:56:10.602Z,13.10
2022-09-09T03:58:40.324Z,13.00
2022-09-09T04:01:14.248Z,12.90
2022-09-09T04:03:44.016Z,12.80
2022-09-09T04:06:15.890Z,12.80
2022-09-09T04:08:49.429Z,12.80
2022-09-09T04:11:17.733Z,12.60
2022-09-09T04:13:46.951Z,12.70
2022-09-09T04:16:15.710Z,12.80
2022-09-09T04:18:45.233Z,12.90
2022-09-09T04:21:17.053Z,12.90
2022-09-09T04:23:45.117Z,12.80
2022-09-09T04:26:13.391Z,12.80
2022-09-09T04:28:42.259Z,12.90
2022-09-09T04:31:19.627Z,13.00
2022-09-09T04:33:48.919Z,13.10
2022-09-09T04:36:23.028Z,13.00
2022-09-09T04:38:53.879Z,13.00
2022-09-09T04:41:21.981Z,12.90
2022-09-09T04:43:54.512Z,12.90
2022-09-09T04:46:23.587Z,12.90
2022-09-09T04:48:52.172Z,12.90
2022-09-09T04:51:21.892Z,12.80
2022-09-09T04:53:52.017Z,12.80
2022-09-09T04:56:21.025Z,12.70
2022-09-09T04:58:59.935Z,12.70
2022-09-09T05:01:38.218Z,12.70
2022-09-09T05:04:07.228Z,12.70
2022-09-09T05:06:38.212Z,12.80
2022-09-09T05:09:07.080Z,13.50
2022-09-09T05:11:37.740Z,14.10
2022-09-09T05:14:24.678Z,13.50
2022-09-09T05:16:53.446Z,13.50
2022-09-09T05:19:23.227Z,13.20
2022-09-09T05:21:54.778Z,13.20
2022-09-09T05:24:28.876Z,13.60
2022-09-09T05:27:00.873Z,14.70
2022-09-09T05:29:29.316Z,14.90
2022-09-09T05:31:58.471Z,15.40
2022-09-09T05:34:26.672Z,15.20
2022-09-09T05:36:56.470Z,14.80
2022-09-09T05:39:25.830Z,14.30
2022-09-09T05:41:53.913Z,14.60
2022-09-09T05:44:24.308Z,15.30
2022-09-09T05:46:52.537Z,15.30
2022-09-09T05:49:21.012Z,14.70
2022-09-09T05:51:51.453Z,15.10
2022-09-09T05:54:22.433Z,15.70
2022-09-09T05:56:54.609Z,15.80
2022-09-09T05:59:24.567Z,15.70
2022-09-09T06:01:55.307Z,15.40
2022-09-09T06:04:32.294Z,16.00
2022-09-09T06:07:02.470Z,15.70
2022-09-09T06:09:32.886Z,16.00
2022-09-09T06:12:01.282Z,15.80
2022-09-09T06:14:29.457Z,15.20
2022-09-09T06:17:00.782Z,15.20
2022-09-09T06:19:31.698Z,15.90
2022-09-09T06:22:00.867Z,15.90
2022-09-09T06:24:33.886Z,15.90
2022-09-09T06:27:03.379Z,16.20
2022-09-09T06:29:35.362Z,15.90
2022-09-09T06:32:04.884Z,15.50
2022-09-09T06:34:33.163Z,15.40
2022-09-09T06:37:02.339Z,15.20
2022-09-09T06:39:38.816Z,15.10
2022-09-09T06:42:09.934Z,14.90
2022-09-09T06:45:02.085Z,15.00
2022-09-09T06:47:37.183Z,15.10
2022-09-09T06:50:08.317Z,14.80
2022-09-09T06:52:37.230Z,14.80
2022-09-09T06:55:09.172Z,14.80
2022-09-09T06:57:38.272Z,14.90
2022-09-09T07:00:20.461Z,15.10
2022-09-09T07:02:49.076Z,15.50
2022-09-09T07:05:17.646Z,15.50
2022-09-09T07:07:47.817Z,15.70
2022-09-09T07:10:19.975Z,15.60
2022-09-09T07:12:53.791Z,15.50
2022-09-09T07:15:23.881Z,15.40
2022-09-09T07:17:52.799Z,15.40
2022-09-09T07:20:21.129Z,15.50
2022-09-09T07:22:49.324Z,15.40
2022-09-09T07:25:19.013Z,15.30
2022-09-09T07:28:01.346Z,15.50
2022-09-09T07:30:37.133Z,15.40
2022-09-09T07:33:17.560Z,15.50
2022-09-09T07:35:57.638Z,15.50
2022-09-09T07:38:27.175Z,15.60
2022-09-09T07:41:35.923Z,15.60
2022-09-09T07:44:07.661Z,15.20
2022-09-09T07:46:37.830Z,15.00
2022-09-09T07:49:06.120Z,15.20
2022-09-09T07:51:38.217Z,15.30
2022-09-09T07:54:07.751Z,15.40
2022-09-09T07:56:40.242Z,15.60
2022-09-09T07:59:11.358Z,15.70
2022-09-09T08:01:43.383Z,15.70
2022-09-09T08:04:16.153Z,15.90
2022-09-09T08:06:47.487Z,16.10
2022-09-09T08:09:17.277Z,16.00
2022-09-09T08:11:49.047Z,15.90
2022-09-09T08:14:19.415Z,16.00
2022-09-09T08:16:50.427Z,16.50
2022-09-09T08:19:21.855Z,16.80
2022-09-09T08:21:50.026Z,17.20
2022-09-09T08:24:20.563Z,17.30
2022-09-09T08:26:52.403Z,17.50
2022-09-09T08:29:24.787Z,17.40
2022-09-09T08:31:58.123Z,17.70
2022-09-09T08:34:29.089Z,17.80
2022-09-09T08:36:59.333Z,18.00
2022-09-09T08:39:36.455Z,17.80
2022-09-09T08:42:28.489Z,17.60
2022-09-09T08:45:13.592Z,17.50
2022-09-09T08:47:50.835Z,17.50
2022-09-09T08:50:27.702Z,17.10
2022-09-09T08:53:06.792Z,16.60
2022-09-09T08:55:43.843Z,16.80
2022-09-09T08:58:16.901Z,16.80
2022-09-09T09:01:02.382Z,16.80
2022-09-09T09:03:42.499Z,16.90
2022-09-09T09:06:23.807Z,17.40
2022-09-09T09:09:02.572Z,17.50
2022-09-09T09:11:38.554Z,17.20
2022-09-09T09:14:14.149Z,17.60
2022-09-09T09:16:50.669Z,17.70
2022-09-09T09:19:19.251Z,17.50
2022-09-09T09:21:53.999Z,17.10
2022-09-09T09:24:25.762Z,17.30
2022-09-09T09:26:55.982Z,17.10
2022-09-09T09:29:28.089Z,17.60
2022-09-09T09:32:02.061Z,17.50
2022-09-09T09:34:30.256Z,17.60
2022-09-09T09:37:02.737Z,17.80
2022-09-09T09:42:27.091Z,17.30
2022-09-09T09:45:09.982Z,17.40
2022-09-09T09:47:38.130Z,17.30
2022-09-09T09:50:21.873Z,16.80
2022-09-09T09:52:58.361Z,16.40
2022-09-09T09:55:28.497Z,17.00
2022-09-09T10:00:35.991Z,17.50
2022-09-09T10:03:25.918Z,17.30
2022-09-09T10:05:56.205Z,17.40
2022-09-09T10:08:25.763Z,17.40
2022-09-09T10:11:28.056Z,17.60
2022-09-09T10:14:05.572Z,17.40
2022-09-09T10:16:49.509Z,17.20
2022-09-09T10:19:21.483Z,17.40
2022-09-09T10:22:07.669Z,17.50
2022-09-09T10:25:03.811Z,17.50
2022-09-09T10:27:40.745Z,17.70
2022-09-09T10:30:17.487Z,17.30
2022-09-09T10:32:53.201Z,17.30
2022-09-09T10:35:32.370Z,17.40
2022-09-09T10:38:16.487Z,17.50
2022-09-09T10:41:12.011Z,17.30
2022-09-09T10:44:20.215Z,17.30
2022-09-09T10:47:16.349Z,17.30
2022-09-09T10:50:02.044Z,17.70
2022-09-09T10:52:38.969Z,17.50
2022-09-09T10:55:17.439Z,17.60
2022-09-09T10:57:49.721Z,17.70
2022-09-09T11:00:20.910Z,17.60
2022-09-09T11:02:53.591Z,17.60
2022-09-09T11:05:29.477Z,17.60
2022-09-09T11:08:01.804Z,17.90
2022-09-09T11:10:38.191Z,18.20
2022-09-09T11:13:12.736Z,18.50
2022-09-09T11:15:45.947Z,18.60
2022-09-09T11:18:18.871Z,18.10
2022-09-09T11:20:52.088Z,18.30
2022-09-09T11:23:26.324Z,18.00
2022-09-09T11:25:59.459Z,18.10
2022-09-09T11:28:42.002Z,18.00
2022-09-09T11:31:27.929Z,18.10
2022-09-09T11:34:09.427Z,18.50
2022-09-09T11:37:09.151Z,18.50
2022-09-09T11:40:10.813Z,18.50
2022-09-09T11:42:39.293Z,18.90
2022-09-09T11:45:13.946Z,18.70
2022-09-09T11:47:42.210Z,18.70
2022-09-09T11:50:13.402Z,18.50
2022-09-09T11:52:46.936Z,18.90
2022-09-09T11:55:28.284Z,19.00
2022-09-09T11:58:00.487Z,18.90
2022-09-09T12:00:38.045Z,18.90
2022-09-09T12:03:06.594Z,18.80
2022-09-09T12:05:40.027Z,18.70
2022-09-09T12:08:12.898Z,18.70
2022-09-09T12:10:42.214Z,19.00
2022-09-09T12:13:17.144Z,18.90
2022-09-09T12:15:51.952Z,18.50
2022-09-09T12:18:26.187Z,18.40
2022-09-09T12:21:03.359Z,18.50
2022-09-09T12:23:42.962Z,18.70
2022-09-09T12:26:32.079Z,18.50
2022-09-09T12:29:24.068Z,18.70
2022-09-09T12:31:58.583Z,19.00
2022-09-09T12:34:36.836Z,19.00
2022-09-09T12:37:09.951Z,18.80
2022-09-09T12:39:46.519Z,18.70
2022-09-09T12:42:22.230Z,18.90
2022-09-09T12:44:54.991Z,19.00
2022-09-09T12:47:30.255Z,18.70
2022-09-09T12:50:00.196Z,18.60
2022-09-09T12:52:33.129Z,18.30
2022-09-09T12:55:05.441Z,18.70
2022-09-09T12:57:37.855Z,18.70
2022-09-09T13:00:18.893Z,18.80
2022-09-09T13:02:52.897Z,19.10
2022-09-09T13:05:24.557Z,19.20
2022-09-09T13:07:53.332Z,19.30
2022-09-09T13:10:36.772Z,19.60
2022-09-09T13:13:17.146Z,19.50
2022-09-09T13:15:52.357Z,19.70
2022-09-09T13:18:24.542Z,19.30
2022-09-09T13:20:53.735Z,19.20
2022-09-09T13:23:23.332Z,19.60
2022-09-09T13:26:00.556Z,19.30
2022-09-09T13:28:33.600Z,19.30
2022-09-09T13:31:04.522Z,19.50
2022-09-09T13:33:38.376Z,19.40
2022-09-09T13:36:09.457Z,19.60
2022-09-09T13:38:40.413Z,19.80
2022-09-09T13:41:12.618Z,19.70
2022-09-09T13:43:46.408Z,19.70
2022-09-09T13:46:28.633Z,19.70
2022-09-09T13:48:57.719Z,19.40
2022-09-09T13:51:38.256Z,19.50
2022-09-09T13:54:07.569Z,19.30
2022-09-09T13:56:37.674Z,19.10
2022-09-09T13:59:09.068Z,19.00
2022-09-09T14:01:38.551Z,18.90
2022-09-09T14:04:07.475Z,18.70
2022-09-09T14:06:38.231Z,18.80
2022-09-09T14:09:07.234Z,18.50
2022-09-09T14:11:36.625Z,18.70
2022-09-09T14:14:05.709Z,18.10
2022-09-09T14:16:33.885Z,18.30
2022-09-09T14:19:02.397Z,18.30
2022-09-09T14:21:30.642Z,18.40
2022-09-09T14:23:59.683Z,18.10
2022-09-09T14:26:29.790Z,17.90
2022-09-09T14:28:59.789Z,17.80
2022-09-09T14:31:28.245Z,17.80
2022-09-09T14:33:56.272Z,17.80
2022-09-09T14:36:25.271Z,17.90
2022-09-09T14:38:53.414Z,18.00
2022-09-09T14:41:23.566Z,18.50
2022-09-09T14:43:52.594Z,19.30
2022-09-09T14:46:22.676Z,19.10
2022-09-09T14:48:50.783Z,18.70
2022-09-09T14:51:21.461Z,18.30
2022-09-09T14:53:49.674Z,18.10
2022-09-09T14:56:19.597Z,18.00
2022-09-09T14:58:48.592Z,18.20
2022-09-09T15:01:18.619Z,18.00
2022-09-09T15:03:53.475Z,17.90
2022-09-09T15:06:22.724Z,17.80
2022-09-09T15:08:53.227Z,17.80
2022-09-09T15:11:25.309Z,17.70
2022-09-09T15:13:54.287Z,17.80
2022-09-09T15:16:24.856Z,17.70
2022-09-09T15:18:56.044Z,17.60
2022-09-09T15:21:26.863Z,17.90
2022-09-09T15:23:55.305Z,17.90
2022-09-09T15:26:24.206Z,17.80
2022-09-09T15:28:52.465Z,17.80
2022-09-09T15:31:22.154Z,17.60
2022-09-09T15:33:50.990Z,17.70
2022-09-09T15:36:22.818Z,17.60
2022-09-09T15:38:51.370Z,17.50
2022-09-09T15:41:20.885Z,17.50
2022-09-09T15:43:50.890Z,17.30
2022-09-09T15:46:38.268Z,17.50
2022-09-09T15:49:10.063Z,17.40
2022-09-09T15:51:43.132Z,17.50
2022-09-09T15:54:13.130Z,17.80
2022-09-09T15:56:41.988Z,17.60
2022-09-09T15:59:10.364Z,17.60
2022-09-09T16:01:40.463Z,17.70
2022-09-09T16:04:08.628Z,17.80
2022-09-09T16:06:37.316Z,18.10
2022-09-09T16:09:08.196Z,17.80
2022-09-09T16:11:38.863Z,17.90
2022-09-09T16:14:08.102Z,19.00
2022-09-09T16:16:37.052Z,20.00
2022-09-09T16:19:07.413Z,21.40
2022-09-09T16:21:38.467Z,21.60
2022-09-09T16:24:09.593Z,20.00
2022-09-09T16:26:40.067Z,19.10
2022-09-09T16:29:08.173Z,18.40
2022-09-09T16:31:36.296Z,18.40
2022-09-09T16:34:05.253Z,18.20
2022-09-09T16:36:35.811Z,17.90
2022-09-09T16:39:06.780Z,17.90
2022-09-09T16:41:36.158Z,18.40
2022-09-09T16:44:06.482Z,19.40
2022-09-09T16:46:36.814Z,20.00
2022-09-09T16:49:07.740Z,20.10
2022-09-09T16:51:37.373Z,20.30
2022-09-09T16:54:08.124Z,20.40
2022-09-09T16:56:42.129Z,20.40
2022-09-09T16:59:12.196Z,20.30
2022-09-09T17:01:42.126Z,20.30
2022-09-09T17:04:12.407Z,20.80
2022-09-09T17:06:42.207Z,20.60
2022-09-09T17:09:14.442Z,20.60
2022-09-09T17:11:44.018Z,19.70
2022-09-09T17:14:16.435Z,19.10
2022-09-09T17:16:45.002Z,18.40
2022-09-09T17:19:13.856Z,17.80
2022-09-09T17:22:05.794Z,17.50
2022-09-09T17:24:30.916Z,17.30
2022-09-09T17:27:01.080Z,17.10
2022-09-09T17:29:29.266Z,17.00
2022-09-09T17:31:57.572Z,17.00
2022-09-09T17:34:26.055Z,16.80
2022-09-09T17:36:54.151Z,16.70
2022-09-09T17:39:22.142Z,16.60
2022-09-09T17:41:50.629Z,16.40
2022-09-09T17:44:20.278Z,16.20
2022-09-09T17:46:48.458Z,16.10
2022-09-09T17:49:19.342Z,15.90
2022-09-09T17:51:48.391Z,15.70
2022-09-09T17:54:18.621Z,16.00
2022-09-09T17:56:48.093Z,15.90
2022-09-09T17:59:18.181Z,15.70
2022-09-09T18:01:51.202Z,15.70
2022-09-09T18:04:20.380Z,15.60
2022-09-09T18:06:50.091Z,15.50
2022-09-09T18:09:20.679Z,15.40
2022-09-09T18:11:50.337Z,15.30
2022-09-09T18:14:20.470Z,15.30
2022-09-09T18:16:50.931Z,15.20
2022-09-09T18:19:21.185Z,15.20
2022-09-09T18:21:49.487Z,15.00
2022-09-09T18:24:18.977Z,14.90
2022-09-09T18:26:48.163Z,14.80
2022-09-09T18:29:19.172Z,14.70
2022-09-09T18:31:49.196Z,14.60
2022-09-09T18:34:19.276Z,14.90
2022-09-09T18:36:50.000Z,15.00
2022-09-09T18:39:19.552Z,14.80
2022-09-09T18:41:49.089Z,14.90
2022-09-09T18:44:20.601Z,15.10
2022-09-09T18:46:51.977Z,15.10
2022-09-09T18:49:21.120Z,14.80
2022-09-09T18:51:49.206Z,14.70
2022-09-09T18:54:19.515Z,14.60
2022-09-09T18:56:48.633Z,14.60
2022-09-09T18:59:20.150Z,14.60
2022-09-09T19:01:50.813Z,14.60
2022-09-09T19:04:19.781Z,14.40
2022-09-09T19:06:48.422Z,14.40
2022-09-09T19:09:19.125Z,14.30
2022-09-09T19:11:48.076Z,14.30
2022-09-09T19:14:19.009Z,14.40
2022-09-09T19:16:48.899Z,14.40
2022-09-09T19:19:21.444Z,14.70
2022-09-09T19:21:51.639Z,14.50
2022-09-09T19:24:21.738Z,14.60
2022-09-09T19:26:52.171Z,14.50
2022-09-09T19:29:22.086Z,14.30
2022-09-09T19:32:29.302Z,14.40
2022-09-09T19:34:40.956Z,14.20
2022-09-09T19:37:09.284Z,14.30
2022-09-09T19:39:37.442Z,13.70
2022-09-09T19:42:05.531Z,14.10
2022-09-09T19:44:33.559Z,14.20
2022-09-09T19:47:03.109Z,13.90
2022-09-09T19:49:31.171Z,14.70
2022-09-09T19:51:59.702Z,14.20
2022-09-09T19:54:27.979Z,13.60
2022-09-09T19:56:56.623Z,13.40
2022-09-09T19:59:24.723Z,13.90
2022-09-09T20:01:52.819Z,14.40
2022-09-09T20:04:22.355Z,14.00
2022-09-09T20:06:51.804Z,13.80
2022-09-09T20:09:20.397Z,13.60
2022-09-09T20:11:49.856Z,13.40
2022-09-09T20:14:18.612Z,13.80
2022-09-09T20:16:47.533Z,13.60
2022-09-09T20:19:17.387Z,13.50
2022-09-09T20:21:49.544Z,13.50
2022-09-09T20:24:19.572Z,13.40
2022-09-09T20:26:48.235Z,13.80
2022-09-09T20:29:19.046Z,14.00
2022-09-09T20:31:48.370Z,13.40
2022-09-09T20:34:19.341Z,13.10
2022-09-09T20:36:50.298Z,13.10
2022-09-09T20:39:20.901Z,13.20
2022-09-09T20:41:50.311Z,13.60
2022-09-09T20:44:20.043Z,13.60
2022-09-09T20:46:49.820Z,13.50
2022-09-09T20:49:19.410Z,13.40
2022-09-09T20:51:50.810Z,13.20
2022-09-09T20:54:20.914Z,13.30
2022-09-09T20:56:50.410Z,13.00
2022-09-09T20:59:21.784Z,13.00
2022-09-09T21:01:50.537Z,12.90
2022-09-09T21:04:20.888Z,13.00
2022-09-09T21:06:51.225Z,13.20
2022-09-09T21:09:20.637Z,13.00
2022-09-09T21:11:48.724Z,12.90
2022-09-09T21:14:16.994Z,12.70
2022-09-09T21:16:45.961Z,12.70
2022-09-09T21:19:14.232Z,12.70
2022-09-09T21:21:42.277Z,13.00
2022-09-09T21:24:12.189Z,13.30
2022-09-09T21:26:40.455Z,13.30
2022-09-09T21:29:08.698Z,13.40
2022-09-09T21:31:37.420Z,13.10
2022-09-09T21:34:05.943Z,13.10
2022-09-09T21:36:34.024Z,13.00
2022-09-09T21:39:02.209Z,12.90
2022-09-09T21:41:31.646Z,13.10
2022-09-09T21:43:59.827Z,13.10
2022-09-09T21:46:28.248Z,13.10
2022-09-09T21:48:57.291Z,13.10
2022-09-09T21:51:26.427Z,13.00
2022-09-09T21:53:57.542Z,12.90
2022-09-09T21:56:26.798Z,12.90
2022-09-09T21:59:03.698Z,13.00
2022-09-09T22:01:33.552Z,13.20
2022-09-09T22:04:02.311Z,13.20
2022-09-09T22:06:30.559Z,13.30
2022-09-09T22:08:59.171Z,13.50
2022-09-09T22:11:28.182Z,13.70
2022-09-09T22:13:56.216Z,13.60
2022-09-09T22:16:25.739Z,13.50
2022-09-09T22:18:56.616Z,13.50
2022-09-09T22:21:26.027Z,13.30
2022-09-09T22:23:56.115Z,13.20
2022-09-09T22:26:25.248Z,13.20
2022-09-09T22:28:54.915Z,13.10
2022-09-09T22:31:25.755Z,13.00
2022-09-09T22:33:54.952Z,12.90
2022-09-09T22:36:23.432Z,12.80
2022-09-09T22:38:52.838Z,12.80
2022-09-09T22:41:21.582Z,12.80
2022-09-09T22:43:49.960Z,12.80
2022-09-09T22:46:18.775Z,12.70
2022-09-09T22:48:48.287Z,12.60
2022-09-09T22:51:17.189Z,12.60
2022-09-09T22:53:46.405Z,12.50
2022-09-09T22:56:17.082Z,12.50
2022-09-09T22:58:46.364Z,12.40
2022-09-09T23:01:16.022Z,12.40
2022-09-09T23:03:46.099Z,12.40
2022-09-09T23:06:20.213Z,12.30
2022-09-09T23:08:49.868Z,12.20
2022-09-09T23:11:18.043Z,12.10
2022-09-09T23:13:51.973Z,12.20
2022-09-09T23:16:21.951Z,12.20
2022-09-09T23:18:50.406Z,12.00
2022-09-09T23:21:20.948Z,11.90
2022-09-09T23:23:49.661Z,11.90
2022-09-09T23:26:20.238Z,11.80
2022-09-09T23:28:49.878Z,11.80
2022-09-09T23:31:20.658Z,11.70
2022-09-09T23:33:49.273Z,11.70
2022-09-09T23:36:22.680Z,11.60
2022-09-09T23:38:51.397Z,11.50
2022-09-09T23:41:21.212Z,11.50
2022-09-09T23:43:49.459Z,11.30
2022-09-09T23:46:20.223Z,11.30
2022-09-09T23:48:50.646Z,11.20
2022-09-09T23:51:23.851Z,11.20
2022-09-09T23:53:54.105Z,11.20
2022-09-09T23:56:24.177Z,11.10
2022-09-09T23:58:53.110Z,11.10
